createdAt,value
2018-04-08T00:03:16.605Z,93.90
2018-04-08T00:09:20.950Z,94.00
2018-04-08T00:15:25.295Z,94.00
2018-04-08T00:21:29.648Z,93.60
2018-04-08T00:27:33.990Z,93.50
2018-04-08T00:33:39.103Z,94.80
2018-04-08T00:39:43.455Z,94.50
2018-04-08T00:45:47.832Z,94.80
2018-04-08T00:51:52.162Z,95.60
2018-04-08T00:57:56.500Z,96.20
2018-04-08T01:04:00.537Z,96.10
2018-04-08T01:10:04.566Z,95.40
2018-04-08T01:16:08.594Z,94.70
2018-04-08T01:22:12.703Z,94.00
2018-04-08T01:28:17.043Z,92.40
2018-04-08T01:34:21.406Z,92.60
2018-04-08T01:40:25.757Z,93.20
2018-04-08T01:46:30.094Z,94.60
2018-04-08T01:52:34.473Z,93.80
2018-04-08T01:58:39.598Z,93.80
2018-04-08T02:04:43.949Z,93.80
2018-04-08T02:10:48.287Z,94.10
2018-04-08T02:16:52.641Z,93.90
2018-04-08T02:22:57.754Z,93.80
2018-04-08T02:29:02.105Z,93.80
2018-04-08T02:35:06.461Z,93.80
2018-04-08T02:41:10.794Z,93.90
2018-04-08T02:47:15.152Z,94.20
2018-04-08T02:53:19.502Z,94.40
2018-04-08T02:59:24.613Z,95.10
2018-04-08T03:05:28.958Z,95.10
2018-04-08T03:11:33.290Z,95.30
2018-04-08T03:17:37.631Z,95.60
2018-04-08T03:23:41.975Z,95.50
2018-04-08T03:29:46.317Z,95.60
2018-04-08T03:35:50.653Z,95.90
2018-04-08T03:41:54.996Z,96.50
2018-04-08T03:47:59.335Z,96.70
2018-04-08T03:54:03.691Z,96.90
2018-04-08T04:00:08.027Z,96.70
2018-04-08T04:06:12.351Z,96.90
2018-04-08T04:12:16.686Z,97.10
2018-04-08T04:18:38.578Z,97.40
2018-04-08T04:25:20.500Z,97.80
2018-04-08T04:31:24.842Z,97.70
2018-04-08T04:37:29.179Z,98.00
2018-04-08T04:43:33.533Z,98.10
2018-04-08T04:49:37.864Z,98.10
2018-04-08T04:55:42.201Z,97.80
2018-04-08T05:01:46.531Z,98.10
2018-04-08T05:07:50.878Z,98.40
2018-04-08T05:13:55.225Z,97.70
2018-04-08T05:19:59.554Z,97.80
2018-04-08T05:26:03.921Z,97.70
2018-04-08T05:32:08.277Z,97.30
2018-04-08T05:38:13.379Z,96.80
2018-04-08T05:44:17.724Z,96.80
2018-04-08T05:50:22.058Z,96.80
2018-04-08T05:56:26.403Z,96.30
2018-04-08T06:02:30.749Z,96.50
2018-04-08T06:08:35.078Z,96.20
2018-04-08T06:14:39.437Z,96.60
2018-04-08T06:20:43.760Z,96.50
2018-04-08T06:26:48.106Z,95.60
2018-04-08T06:32:52.471Z,95.20
2018-04-08T06:38:56.820Z,95.50
2018-04-08T06:45:01.158Z,95.50
2018-04-08T06:51:05.500Z,96.50
2018-04-08T06:57:09.859Z,94.10
2018-04-08T07:03:14.203Z,79.40
2018-04-08T07:09:18.532Z,60.20
2018-04-08T07:15:22.887Z,54.20
2018-04-08T07:21:27.229Z,53.10
2018-04-08T07:27:32.370Z,75.50
2018-04-08T07:33:36.753Z,75.40
2018-04-08T07:39:41.081Z,78.00
2018-04-08T07:45:45.417Z,77.80
2018-04-08T07:51:50.525Z,79.70
2018-04-08T07:57:54.858Z,79.70
2018-04-08T08:03:59.204Z,79.40
2018-04-08T08:10:03.548Z,77.10
2018-04-08T08:16:07.899Z,74.30
2018-04-08T08:22:12.258Z,69.80
2018-04-08T08:28:16.612Z,69.50
2018-04-08T08:34:21.712Z,66.10
2018-04-08T08:40:26.062Z,66.00
2018-04-08T08:46:31.193Z,61.90
2018-04-08T08:52:35.551Z,61.90
2018-04-08T08:58:39.896Z,63.00
2018-04-08T09:04:44.251Z,64.90
2018-04-08T09:10:48.601Z,66.80
2018-04-08T09:16:52.972Z,59.20
2018-04-08T09:23:03.739Z,58.60
2018-04-08T09:29:09.662Z,53.20
2018-04-08T09:35:14.078Z,53.20
2018-04-08T09:41:18.462Z,47.50
2018-04-08T09:47:22.905Z,42.50
2018-04-08T09:53:27.282Z,41.80
2018-04-08T09:59:31.720Z,38.20
2018-04-08T10:05:36.153Z,34.40
2018-04-08T10:11:41.307Z,32.20
2018-04-08T10:17:45.689Z,32.10
2018-04-08T10:23:50.868Z,27.20
2018-04-08T10:29:55.270Z,27.20
2018-04-08T10:35:59.626Z,27.10
2018-04-08T10:42:03.975Z,26.20
2018-04-08T10:48:09.145Z,25.40
2018-04-08T10:54:14.269Z,24.30
2018-04-08T11:00:18.632Z,24.20
2018-04-08T11:06:23.754Z,25.60
2018-04-08T11:12:28.109Z,25.60
2018-04-08T11:18:32.447Z,28.10
2018-04-08T11:24:36.814Z,27.60
2018-04-08T11:30:41.168Z,27.30
2018-04-08T11:36:46.296Z,25.20
2018-04-08T11:42:50.652Z,25.20
2018-04-08T11:48:55.767Z,25.60
2018-04-08T11:55:00.965Z,25.00
2018-04-08T12:01:05.343Z,24.50
2018-04-08T12:07:09.718Z,24.00
2018-04-08T12:13:14.902Z,22.20
2018-04-08T12:19:19.241Z,22.20
2018-04-08T12:25:23.598Z,23.60
2018-04-08T12:31:28.723Z,22.20
2018-04-08T12:37:33.073Z,22.10
2018-04-08T12:43:37.422Z,21.60
2018-04-08T12:49:41.805Z,20.70
2018-04-08T12:55:46.923Z,19.20
2018-04-08T13:01:51.277Z,19.20
2018-04-08T13:07:55.633Z,20.00
2018-04-08T13:14:00.762Z,18.70
2018-04-08T13:20:05.106Z,18.70
2018-04-08T13:26:09.467Z,19.00
2018-04-08T13:32:13.818Z,16.60
2018-04-08T13:38:18.940Z,16.70
2018-04-08T13:44:23.274Z,16.60
2018-04-08T13:50:27.600Z,17.30
2018-04-08T13:56:31.946Z,17.30
2018-04-08T14:02:36.292Z,16.80
2018-04-08T14:08:40.646Z,17.00
2018-04-08T14:14:45.021Z,17.30
2018-04-08T14:20:50.179Z,17.50
2018-04-08T14:26:54.523Z,17.50
2018-04-08T14:32:59.641Z,17.00
2018-04-08T14:39:03.985Z,17.00
2018-04-08T14:45:08.362Z,16.80
2018-04-08T14:51:13.541Z,17.20
2018-04-08T14:57:17.949Z,17.20
2018-04-08T15:03:22.376Z,16.20
2018-04-08T15:09:26.765Z,15.90
2018-04-08T15:15:31.183Z,16.60
2018-04-08T15:21:36.356Z,17.20
2018-04-08T15:27:40.765Z,17.10
2018-04-08T15:33:45.166Z,15.90
2018-04-08T15:39:49.569Z,16.40
2018-04-08T15:45:53.926Z,17.60
2018-04-08T15:51:58.267Z,16.70
2018-04-08T15:58:02.630Z,16.50
2018-04-08T16:04:06.972Z,17.10
2018-04-08T16:10:11.314Z,17.00
2018-04-08T16:16:15.664Z,19.10
2018-04-08T16:22:20.018Z,17.30
2018-04-08T16:28:24.364Z,17.60
2018-04-08T16:34:28.707Z,18.20
2018-04-08T16:40:33.046Z,19.90
2018-04-08T16:46:37.395Z,19.30
2018-04-08T16:52:41.724Z,24.20
2018-04-08T16:58:46.068Z,23.00
2018-04-08T17:04:50.406Z,24.20
2018-04-08T17:10:54.819Z,26.30
2018-04-08T17:16:59.163Z,29.60
2018-04-08T17:23:03.523Z,30.00
2018-04-08T17:29:07.871Z,31.40
2018-04-08T17:35:12.218Z,34.70
2018-04-08T17:41:16.591Z,37.50
2018-04-08T17:47:21.719Z,41.60
2018-04-08T17:53:26.061Z,41.50
2018-04-08T17:59:30.437Z,43.90
2018-04-08T18:05:35.568Z,49.10
2018-04-08T18:11:39.917Z,49.10
2018-04-08T18:17:44.255Z,53.60
2018-04-08T18:23:48.635Z,59.70
2018-04-08T18:29:53.727Z,72.60
2018-04-08T18:35:58.078Z,72.60
2018-04-08T18:42:02.430Z,72.80
2018-04-08T18:48:06.775Z,74.60
2018-04-08T18:54:11.132Z,76.90
2018-04-08T19:00:16.249Z,81.30
2018-04-08T19:06:20.598Z,81.20
2018-04-08T19:12:24.982Z,82.80
2018-04-08T19:18:29.330Z,83.30
2018-04-08T19:24:34.436Z,86.50
2018-04-08T19:30:38.789Z,86.50
2018-04-08T19:36:43.154Z,87.60
2018-04-08T19:42:48.269Z,88.30
2018-04-08T19:48:52.663Z,88.20
2018-04-08T19:54:57.797Z,89.70
2018-04-08T20:01:02.138Z,89.60
2018-04-08T20:07:06.478Z,90.10
2018-04-08T20:13:10.833Z,90.20
2018-04-08T20:19:15.182Z,90.60
2018-04-08T20:25:20.290Z,90.90
2018-04-08T20:31:24.647Z,90.90
2018-04-08T20:37:29.211Z,91.30
2018-04-08T20:43:33.582Z,91.50
2018-04-08T20:49:37.931Z,92.00
2018-04-08T20:55:42.300Z,92.40
2018-04-08T21:01:46.655Z,92.90
2018-04-08T21:07:51.019Z,93.10
2018-04-08T21:13:55.437Z,93.40
2018-04-08T21:19:59.791Z,94.10
2018-04-08T21:26:04.153Z,93.90
2018-04-08T21:32:08.494Z,94.00
2018-04-08T21:38:13.608Z,94.20
2018-04-08T21:44:17.956Z,94.10
2018-04-08T21:50:22.302Z,94.40
2018-04-08T21:56:26.659Z,94.30
2018-04-08T22:02:31.009Z,94.30
2018-04-08T22:08:36.137Z,94.90
2018-04-08T22:14:40.496Z,94.70
2018-04-08T22:20:44.836Z,95.00
2018-04-08T22:26:49.177Z,95.60
2018-04-08T22:32:53.538Z,96.10
2018-04-08T22:38:58.638Z,96.20
2018-04-08T22:45:02.989Z,96.10
2018-04-08T22:51:07.339Z,95.90
2018-04-08T22:57:11.686Z,96.00
2018-04-08T23:03:16.031Z,96.40
2018-04-08T23:09:20.382Z,96.50
2018-04-08T23:15:24.742Z,96.80
2018-04-08T23:21:29.865Z,97.20
2018-04-08T23:27:34.231Z,97.10
2018-04-08T23:33:38.573Z,97.20
2018-04-08T23:39:42.930Z,97.90
2018-04-08T23:45:48.044Z,97.90
2018-04-08T23:51:52.394Z,97.80
2018-04-08T23:57:56.739Z,97.90
